Latest Coastal Weather Observations for Broome Port

IDW60701

Issued at 2:02 am WST Monday 22 December 2014 (issued every 10 minutes, with the page automatically refreshed every 10 minutes)

About coastal observations | Map of coastal stations | Coastal observations for WA | Marine services | Other Formats
Station Details ID: 003102 Name: BROOME NTC AWS Lat: -18.00 Lon: 122.22 Height: 0.0 m
Data from the previous 72 hours. | See also: Recent months for locations in Western Australia
Date/Time
WST
Temp

°C
Wind Pressure Rain
since 9am
mm
Weather Cloud Vis
km
Sea
Height
m
Swell
Dir
 
Speed
knots
Gust
knots
hPa Trend Height
m
Period
s
Dir
22/02:00am 29.7 SSW 7 8 1005.7 - - - - - - - - -
22/01:30am 29.6 SW 8 9 1005.7 - - - - - - - - -
22/01:00am 29.7 WSW 10 12 1005.8 - - - - - - - - -
22/12:30am 29.6 WSW 9 13 1006.0 - - - - - - - - -
22/12:00am 29.6 WSW 9 12 1005.8 - - - - - - - - -
 
Date/Time
WST
Temp

°C
Wind Pressure Rain
since 9am
mm
Weather Cloud Vis
km
Sea
Height
m
Swell
Dir
 
Speed
knots
Gust
knots
hPa Trend Height
m
Period
s
Dir
21/11:30pm 29.6 W 13 17 1005.7 - - - - - - - - -
21/11:00pm 29.7 WSW 12 15 1006.2 - - - - - - - - -
21/10:30pm 29.8 WSW 11 13 1006.5 - - - - - - - - -
21/10:00pm 29.9 W 9 12 1006.6 - - - - - - - - -
21/09:30pm 30.0 W 9 11 1006.7 - - - - - - - - -
21/09:00pm 30.1 W 9 11 1006.7 - - - - - - - - -
21/08:30pm 30.0 W 8 11 1006.2 - - - - - - - - -
21/08:00pm 29.8 W 9 11 1005.7 - - - - - - - - -
21/07:30pm 29.9 W 10 13 1005.5 - - - - - - - - -
21/07:00pm 29.9 W 7 10 1005.5 - - - - - - - - -
21/06:30pm 30.0 WSW 9 11 1005.2 - - - - - - - - -
21/06:00pm 30.2 W 9 12 1005.3 - - - - - - - - -
21/05:30pm 30.1 WNW 12 15 1004.7 - - - - - - - - -
21/05:00pm 30.2 WNW 13 17 1004.2 - - - - - - - - -
21/04:30pm 30.1 WNW 15 17 1004.2 - - - - - - - - -
21/04:00pm 30.1 WNW 15 17 1004.1 - - - - - - - - -
21/03:30pm 30.3 WNW 14 17 1004.3 - - - - - - - - -
21/03:00pm 30.2 WNW 13 17 1004.4 - - - - - - - - -
21/02:30pm 30.3 WNW 12 15 1004.7 - - - - - - - - -
21/02:00pm 30.0 WNW 10 15 1005.4 - - - - - - - - -
21/01:30pm 30.2 WNW 9 12 1005.7 - - - - - - - - -
21/01:00pm 30.2 WNW 7 10 1006.1 - - - - - - - - -
21/12:30pm 29.9 WNW 7 10 1006.7 - - - - - - - - -
21/12:00pm 30.1 WNW 7 9 1007.2 - - - - - - - - -
21/11:30am 30.1 WSW 4 8 1007.4 - - - - - - - - -
21/11:00am 30.3 SSW 2 3 1007.8 - - - - - - - - -
21/10:30am 29.7 SSE 3 4 1008.1 - - - - - - - - -
21/10:00am 29.9 S 2 4 1008.5 - - - - - - - - -
21/09:30am 29.5 SSE 5 6 1008.9 - - - - - - - - -
21/09:00am 29.4 SSE 4 6 1008.9 - - - - - - - - -
21/08:30am 29.2 SSE 4 5 1009.1 - - - - - - - - -
21/08:00am 29.3 SSE 4 5 1008.8 - - - - - - - - -
21/07:30am 29.2 S 6 7 1008.7 - - - - - - - - -
21/07:00am 29.1 SSW 7 9 1008.5 - - - - - - - - -
21/06:30am 29.2 WSW 3 5 1008.3 - - - - - - - - -
21/06:00am 29.0 W 2 4 1008.0 - - - - - - - - -
21/05:30am 29.0 WSW 4 5 1008.0 - - - - - - - - -
21/05:00am 28.9 W 3 5 1007.5 - - - - - - - - -
21/04:30am 28.4 WNW 4 5 1006.8 - - - - - - - - -
21/04:00am 28.3 NW 3 5 1006.5 - - - - - - - - -
21/03:30am 27.9 N 3 4 1006.4 - - - - - - - - -
21/03:00am 28.1 NNE 4 6 1006.3 - - - - - - - - -
21/02:30am 28.0 NE 6 7 1006.5 - - - - - - - - -
21/02:00am 27.9 NE 5 6 1006.4 - - - - - - - - -
21/01:30am 27.8 NE 5 6 1006.5 - - - - - - - - -
21/01:00am 27.7 ENE 6 8 1006.7 - - - - - - - - -
21/12:30am 27.9 ENE 8 10 1006.8 - - - - - - - - -
21/12:00am 28.6 ENE 6 9 1007.2 - - - - - - - - -
 
Date/Time
WST
Temp

°C
Wind Pressure Rain
since 9am
mm
Weather Cloud Vis
km
Sea
Height
m
Swell
Dir
 
Speed
knots
Gust
knots
hPa Trend Height
m
Period
s
Dir
20/11:30pm 28.3 E 7 8 1007.4 - - - - - - - - -
20/11:00pm 27.9 E 8 10 1007.9 - - - - - - - - -
20/10:30pm 28.1 E 8 10 1008.2 - - - - - - - - -
20/10:00pm 28.7 SSW 2 6 1008.0 - - - - - - - - -
20/09:30pm 29.0 WNW 3 5 1007.7 - - - - - - - - -
20/09:00pm 29.1 SW 3 5 1007.1 - - - - - - - - -
20/08:30pm 29.1 SW 3 4 1006.5 - - - - - - - - -
20/08:00pm 29.0 W 3 4 1005.8 - - - - - - - - -
20/07:30pm 28.7 SW 4 5 1005.6 - - - - - - - - -
20/07:00pm 28.7 SW 6 8 1005.5 - - - - - - - - -
20/06:30pm 28.3 SW 9 13 1005.4 - - - - - - - - -
20/06:00pm 28.4 WSW 13 15 1005.6 - - - - - - - - -
20/05:30pm 29.1 WSW 10 12 1005.6 - - - - - - - - -
20/05:00pm 28.4 WSW 10 12 1006.0 - - - - - - - - -
20/04:30pm 28.4 SW 6 8 1006.3 - - - - - - - - -
20/04:00pm 27.6 W 5 7 1006.8 - - - - - - - - -
20/03:30pm 27.7 ENE 7 10 1006.6 - - - - - - - - -
20/03:00pm 27.1 NE 13 16 1007.3 - - - - - - - - -
20/02:30pm 26.2 NE 19 24 1007.3 - - - - - - - - -
20/02:00pm 26.5 NNE 22 28 1008.2 - - - - - - - - -
20/01:30pm 26.6 NE 17 22 1008.4 - - - - - - - - -
20/01:19pm 26.9 ENE 16 19 1008.2 - - - - - - - - -
20/01:00pm 27.0 E 22 25 1007.9 - - - - - - - - -
20/12:57pm 27.1 E 20 25 1008.0 - - - - - - - - -
20/12:30pm 28.1 SSE 16 24 1007.6 - - - - - - - - -
20/12:00pm 30.5 WNW 14 17 1006.8 - - - - - - - - -
20/11:30am 30.7 WNW 13 15 1007.2 - - - - - - - - -
20/11:00am 30.6 W 10 13 1008.2 - - - - - - - - -
20/10:30am 30.6 W 7 10 1008.7 - - - - - - - - -
20/10:00am 30.5 WSW 7 10 1009.1 - - - - - - - - -
20/09:30am 30.5 WSW 6 8 1009.5 - - - - - - - - -
20/09:00am 29.9 SW 8 10 1009.6 - - - - - - - - -
20/08:30am 29.8 SW 8 10 1009.7 - - - - - - - - -
20/08:00am 29.7 SW 7 9 1009.5 - - - - - - - - -
20/07:30am 29.8 SSW 7 8 1009.4 - - - - - - - - -
20/07:00am 29.7 SSW 10 12 1009.1 - - - - - - - - -
20/06:30am 29.6 SSW 11 13 1008.7 - - - - - - - - -
20/06:00am 29.6 SW 11 13 1008.5 - - - - - - - - -
20/05:30am 29.6 SW 11 14 1008.2 - - - - - - - - -
20/05:00am 29.7 SW 11 13 1007.9 - - - - - - - - -
20/04:30am 29.8 SW 10 13 1007.6 - - - - - - - - -
20/04:00am 29.8 SW 11 14 1007.6 - - - - - - - - -
20/03:30am 29.8 SW 12 13 1007.5 - - - - - - - - -
20/03:00am 29.9 SW 13 15 1007.2 - - - - - - - - -
20/02:30am 30.0 SW 12 14 1007.4 - - - - - - - - -
20/02:00am 30.0 WSW 9 11 1007.8 - - - - - - - - -
20/01:30am 30.0 WSW 10 12 1007.8 - - - - - - - - -
20/01:00am 30.1 WSW 9 11 1008.1 - - - - - - - - -
20/12:30am 30.1 W 9 11 1008.4 - - - - - - - - -
20/12:00am 30.2 W 8 12 1008.7 - - - - - - - - -
 
Date/Time
WST
Temp

°C
Wind Pressure Rain
since 9am
mm
Weather Cloud Vis
km
Sea
Height
m
Swell
Dir
 
Speed
knots
Gust
knots
hPa Trend Height
m
Period
s
Dir
19/11:30pm 30.2 W 8 11 1008.9 - - - - - - - - -
19/11:00pm 30.4 W 10 13 1009.2 - - - - - - - - -
19/10:30pm 30.5 W 9 12 1009.3 - - - - - - - - -
19/10:00pm 30.6 W 10 13 1009.2 - - - - - - - - -
19/09:30pm 30.7 W 10 12 1009.2 - - - - - - - - -
19/09:00pm 30.8 W 10 12 1008.9 - - - - - - - - -
19/08:30pm 30.6 WNW 9 11 1008.7 - - - - - - - - -
19/08:00pm 30.5 WNW 10 13 1008.5 - - - - - - - - -
19/07:30pm 30.5 WNW 9 11 1008.4 - - - - - - - - -
19/07:00pm 30.5 WNW 10 12 1008.1 - - - - - - - - -
19/06:30pm 30.6 WNW 12 14 1007.6 - - - - - - - - -
19/06:00pm 30.8 WNW 12 15 1007.0 - - - - - - - - -
19/05:30pm 30.8 WNW 12 15 1006.7 - - - - - - - - -
19/05:00pm 30.8 W 12 15 1006.4 - - - - - - - - -
19/04:30pm 31.3 W 13 15 1006.3 - - - - - - - - -
19/04:00pm 31.5 W 12 16 1006.5 - - - - - - - - -
19/03:30pm 31.5 W 10 13 1006.8 - - - - - - - - -
19/03:00pm 31.6 WNW 10 11 1007.0 - - - - - - - - -
19/02:30pm 31.6 W 10 12 1007.3 - - - - - - - - -
19/02:00pm 32.2 W 7 9 1007.5 - - - - - - - - -
19/01:30pm 31.7 WSW 8 10 1007.9 - - - - - - - - -
19/01:00pm 31.5 WSW 6 8 1008.4 - - - - - - - - -
19/12:30pm 31.8 SW 4 5 1008.9 - - - - - - - - -
19/12:00pm 31.4 SW 5 7 1009.4 - - - - - - - - -
19/11:30am 31.0 SSW 5 7 1009.8 - - - - - - - - -
19/11:00am 30.2 SSW 4 6 1010.1 - - - - - - - - -
19/10:30am 30.4 S 2 3 1010.3 - - - - - - - - -
19/10:00am 29.9 S 5 6 1010.6 - - - - - - - - -
19/09:30am 29.7 S 6 7 1010.8 - - - - - - - - -
19/09:00am 29.7 SSE 7 9 1011.1 - - - - - - - - -
19/08:30am 30.1 SSW 4 6 1011.1 - - - - - - - - -
19/08:00am 29.9 S 8 10 1010.9 - - - - - - - - -
19/07:30am 29.7 S 8 10 1010.7 - - - - - - - - -
19/07:00am 30.4 SW 4 5 1010.0 - - - - - - - - -
19/06:30am 30.0 WSW 3 4 1009.4 - - - - - - - - -
19/06:00am 29.3 N 3 5 1008.9 - - - - - - - - -
19/05:30am 29.1 WNW 5 7 1008.4 - - - - - - - - -
19/05:00am 28.9 SSW 7 11 1008.6 - - - - - - - - -
19/04:49am 28.4 SSE 14 16 1009.1 - - - - - - - - -
19/04:30am 27.9 SE 20 26 1009.7 - - - - - - - - -
19/04:00am 28.0 SSE 14 18 1009.3 - - - - - - - - -
19/03:30am 28.8 SW 2 3 1008.3 - - - - - - - - -
19/03:00am 28.0 WSW 1 2 1008.2 - - - - - - - - -
19/02:30am 27.8 N 1 3 1008.4 - - - - - - - - -

Other Formats:

Comma delimited format used in spreadsheet applications
http://www.bom.gov.au/fwo/IDW60701/IDW60701.95202.axf

JavaScript Object Notation format (JSON) in row-major order
http://www.bom.gov.au/fwo/IDW60701/IDW60701.95202.json